OCO22T EBOS-EHAM
Flight info
| Callsign | OCO22T |
|---|---|
| Flight time | 0h 37m |
| Altitude | 9000 |
| Route | COA DCT DENUT |
| Aircraft | S22T/L-SDGRY/S |
Departure
| Time | 2026-05-07 19:51 |
|---|---|
| Airport | Ostend-Bruges International Airport (EBOS) |
Arrival
| Time | 2026-05-07 20:28 |
|---|---|
| Airport | Amsterdam Airport Schiphol (EHAM) |
| Time | Latitude | Longitude | Altitude | Speed | Heading |
|---|---|---|---|---|---|
| 2026-05-07 19:14 | 51.19938 | 2.85543 | 18 ft | 0 kts | 219° |
| 2026-05-07 19:45 | 51.19936 | 2.85541 | 18 ft | 0 kts | 219° |
| 2026-05-07 19:46 | 51.19915 | 2.85536 | 18 ft | 9 kts | 160° |
| 2026-05-07 19:46 | 51.19853 | 2.85469 | 18 ft | 17 kts | 258° |
| 2026-05-07 19:46 | 51.19814 | 2.85310 | 18 ft | 12 kts | 212° |
| 2026-05-07 19:46 | 51.19746 | 2.85254 | 18 ft | 0 kts | 170° |
| 2026-05-07 19:49 | 51.19727 | 2.85261 | 17 ft | 7 kts | 167° |
| 2026-05-07 19:50 | 51.19662 | 2.85312 | 17 ft | 8 kts | 106° |
| 2026-05-07 19:50 | 51.19662 | 2.85323 | 17 ft | 0 kts | 76° |
| 2026-05-07 19:50 | 51.19697 | 2.85517 | 17 ft | 55 kts | 77° |
| 2026-05-07 19:50 | 51.19833 | 2.86329 | 129 ft | 89 kts | 73° |
| 2026-05-07 19:51 | 51.20001 | 2.87325 | 384 ft | 96 kts | 75° |
| 2026-05-07 19:51 | 51.20192 | 2.88383 | 768 ft | 100 kts | 74° |
| 2026-05-07 19:51 | 51.20379 | 2.89431 | 1234 ft | 100 kts | 73° |
| 2026-05-07 19:51 | 51.20554 | 2.90492 | 1682 ft | 98 kts | 77° |
| 2026-05-07 19:52 | 51.20702 | 2.91550 | 2112 ft | 98 kts | 81° |
| 2026-05-07 19:52 | 51.20855 | 2.92664 | 2405 ft | 112 kts | 80° |
| 2026-05-07 19:52 | 51.21025 | 2.93926 | 2726 ft | 117 kts | 79° |
| 2026-05-07 19:52 | 51.21197 | 2.95192 | 3112 ft | 117 kts | 79° |
| 2026-05-07 19:53 | 51.21373 | 2.96471 | 3482 ft | 118 kts | 79° |
| 2026-05-07 19:53 | 51.21553 | 2.97759 | 3856 ft | 120 kts | 79° |
| 2026-05-07 19:53 | 51.21731 | 2.99076 | 4215 ft | 122 kts | 80° |
| 2026-05-07 19:53 | 51.21916 | 3.00396 | 4597 ft | 123 kts | 79° |
| 2026-05-07 19:54 | 51.22103 | 3.01739 | 4971 ft | 125 kts | 80° |
| 2026-05-07 19:54 | 51.22403 | 3.03046 | 5343 ft | 127 kts | 67° |
| 2026-05-07 19:54 | 51.22773 | 3.04341 | 5716 ft | 129 kts | 68° |
| 2026-05-07 19:54 | 51.23167 | 3.05638 | 6097 ft | 132 kts | 56° |
| 2026-05-07 19:55 | 51.23847 | 3.06647 | 6478 ft | 135 kts | 42° |
| 2026-05-07 19:55 | 51.24529 | 3.07672 | 6847 ft | 136 kts | 45° |
| 2026-05-07 19:55 | 51.25209 | 3.08715 | 7221 ft | 136 kts | 45° |
| 2026-05-07 19:55 | 51.25895 | 3.09775 | 7579 ft | 138 kts | 45° |
| 2026-05-07 19:56 | 51.26585 | 3.10843 | 7947 ft | 139 kts | 44° |
| 2026-05-07 19:56 | 51.27282 | 3.11922 | 8335 ft | 139 kts | 44° |
| 2026-05-07 19:56 | 51.27981 | 3.13007 | 8708 ft | 141 kts | 44° |
| 2026-05-07 19:56 | 51.28735 | 3.14182 | 8785 ft | 162 kts | 44° |
| 2026-05-07 19:57 | 51.29575 | 3.15493 | 8829 ft | 175 kts | 44° |
| 2026-05-07 19:57 | 51.30453 | 3.16857 | 8975 ft | 178 kts | 44° |
| 2026-05-07 19:57 | 51.31345 | 3.18245 | 9081 ft | 183 kts | 44° |
| 2026-05-07 19:57 | 51.32248 | 3.19654 | 9083 ft | 179 kts | 44° |
| 2026-05-07 19:58 | 51.33138 | 3.21036 | 9086 ft | 178 kts | 44° |
| 2026-05-07 19:58 | 51.33734 | 3.21962 | 9086 ft | 177 kts | 44° |
| 2026-05-07 19:58 | 51.34899 | 3.23775 | 9084 ft | 176 kts | 44° |
| 2026-05-07 19:58 | 51.35773 | 3.25134 | 9079 ft | 175 kts | 44° |
| 2026-05-07 19:59 | 51.36359 | 3.26048 | 9077 ft | 175 kts | 44° |
| 2026-05-07 19:59 | 51.37513 | 3.27848 | 9077 ft | 174 kts | 44° |
| 2026-05-07 19:59 | 51.38381 | 3.29203 | 9076 ft | 174 kts | 44° |
| 2026-05-07 19:59 | 51.39246 | 3.30554 | 9076 ft | 174 kts | 44° |
| 2026-05-07 20:00 | 51.39831 | 3.31468 | 9074 ft | 174 kts | 44° |
| 2026-05-07 20:00 | 51.40689 | 3.32807 | 9073 ft | 175 kts | 44° |
| 2026-05-07 20:00 | 51.41556 | 3.34165 | 9075 ft | 174 kts | 44° |
| 2026-05-07 20:00 | 51.42421 | 3.35520 | 9071 ft | 174 kts | 44° |
| 2026-05-07 20:01 | 51.43287 | 3.36877 | 9071 ft | 174 kts | 44° |
| 2026-05-07 20:01 | 51.44150 | 3.38227 | 9071 ft | 173 kts | 44° |
| 2026-05-07 20:01 | 51.45012 | 3.39579 | 9071 ft | 173 kts | 44° |
| 2026-05-07 20:01 | 51.45874 | 3.40931 | 9071 ft | 173 kts | 44° |
| 2026-05-07 20:02 | 51.46734 | 3.42281 | 9070 ft | 173 kts | 44° |
| 2026-05-07 20:02 | 51.47599 | 3.43643 | 8978 ft | 178 kts | 45° |
| 2026-05-07 20:02 | 51.48411 | 3.45116 | 8570 ft | 179 kts | 78° |
| 2026-05-07 20:02 | 51.47903 | 3.45506 | 7598 ft | 186 kts | 316° |
| 2026-05-07 20:03 | 51.49055 | 3.46046 | 7427 ft | 175 kts | 43° |
| 2026-05-07 20:03 | 51.49801 | 3.47473 | 6625 ft | 175 kts | 75° |
| 2026-05-07 20:03 | 51.50463 | 3.48909 | 6873 ft | 153 kts | 50° |
| 2026-05-07 20:03 | 51.50781 | 3.50654 | 6559 ft | 175 kts | 79° |
| 2026-05-07 20:04 | 51.51214 | 3.52534 | 6014 ft | 194 kts | 37° |
| 2026-05-07 20:04 | 51.52160 | 3.53637 | 6321 ft | 160 kts | 36° |
| 2026-05-07 20:04 | 51.53129 | 3.54597 | 6457 ft | 167 kts | 19° |
| 2026-05-07 20:04 | 51.54207 | 3.55300 | 6566 ft | 173 kts | 40° |
| 2026-05-07 20:05 | 51.54925 | 3.56892 | 6576 ft | 180 kts | 57° |
| 2026-05-07 20:05 | 51.55760 | 3.58423 | 6583 ft | 186 kts | 45° |
| 2026-05-07 20:05 | 51.56716 | 3.59848 | 6591 ft | 188 kts | 43° |
| 2026-05-07 20:05 | 51.57679 | 3.61296 | 6600 ft | 190 kts | 44° |
| 2026-05-07 20:06 | 51.58632 | 3.62748 | 6711 ft | 184 kts | 44° |
| 2026-05-07 20:06 | 51.59512 | 3.64093 | 7094 ft | 170 kts | 44° |
| 2026-05-07 20:06 | 51.60368 | 3.65399 | 7262 ft | 172 kts | 43° |
| 2026-05-07 20:06 | 51.61233 | 3.66728 | 7463 ft | 171 kts | 43° |
| 2026-05-07 20:07 | 51.62097 | 3.68053 | 7647 ft | 173 kts | 44° |
| 2026-05-07 20:07 | 51.62969 | 3.69392 | 7834 ft | 174 kts | 43° |
| 2026-05-07 20:07 | 51.63848 | 3.70743 | 8014 ft | 174 kts | 43° |
| 2026-05-07 20:07 | 51.64726 | 3.72092 | 8221 ft | 174 kts | 43° |
| 2026-05-07 20:08 | 51.65598 | 3.73434 | 8428 ft | 175 kts | 43° |
| 2026-05-07 20:08 | 51.66483 | 3.74793 | 8602 ft | 177 kts | 43° |
| 2026-05-07 20:08 | 51.67372 | 3.76163 | 8800 ft | 176 kts | 43° |
| 2026-05-07 20:08 | 51.68263 | 3.77534 | 8992 ft | 177 kts | 43° |
| 2026-05-07 20:09 | 51.69160 | 3.78920 | 9075 ft | 183 kts | 43° |
| 2026-05-07 20:09 | 51.70100 | 3.80370 | 9082 ft | 190 kts | 43° |
| 2026-05-07 20:09 | 51.71067 | 3.81862 | 9084 ft | 194 kts | 43° |
| 2026-05-07 20:10 | 51.73034 | 3.84903 | 9085 ft | 195 kts | 43° |
| 2026-05-07 20:10 | 51.74021 | 3.86425 | 9086 ft | 198 kts | 43° |
| 2026-05-07 20:10 | 51.75013 | 3.87961 | 9086 ft | 198 kts | 44° |
| 2026-05-07 20:10 | 51.75997 | 3.89485 | 9083 ft | 189 kts | 44° |
| 2026-05-07 20:11 | 51.76946 | 3.90955 | 9075 ft | 191 kts | 43° |
| 2026-05-07 20:11 | 51.77915 | 3.92451 | 9076 ft | 195 kts | 44° |
| 2026-05-07 20:11 | 51.78897 | 3.93974 | 9078 ft | 196 kts | 44° |
| 2026-05-07 20:11 | 51.79882 | 3.95506 | 9081 ft | 197 kts | 44° |
| 2026-05-07 20:12 | 51.80862 | 3.97026 | 9085 ft | 198 kts | 44° |
| 2026-05-07 20:12 | 51.81857 | 3.98575 | 9086 ft | 199 kts | 44° |
| 2026-05-07 20:12 | 51.82855 | 4.00124 | 9088 ft | 199 kts | 44° |
| 2026-05-07 20:12 | 51.83852 | 4.01676 | 9089 ft | 199 kts | 44° |
| 2026-05-07 20:13 | 51.84852 | 4.03231 | 9085 ft | 199 kts | 44° |
| 2026-05-07 20:13 | 51.85847 | 4.04784 | 9086 ft | 199 kts | 44° |
| 2026-05-07 20:13 | 51.86844 | 4.06338 | 9087 ft | 199 kts | 44° |
| 2026-05-07 20:13 | 51.87842 | 4.07893 | 9086 ft | 199 kts | 44° |
| 2026-05-07 20:14 | 51.88766 | 4.09552 | 9073 ft | 199 kts | 60° |
| 2026-05-07 20:14 | 51.89091 | 4.11698 | 9074 ft | 197 kts | 86° |
| 2026-05-07 20:14 | 51.89198 | 4.13907 | 9076 ft | 197 kts | 87° |
| 2026-05-07 20:14 | 51.89302 | 4.16121 | 9077 ft | 197 kts | 87° |
| 2026-05-07 20:15 | 51.89446 | 4.18330 | 9074 ft | 198 kts | 81° |
| 2026-05-07 20:15 | 51.89837 | 4.20466 | 9073 ft | 199 kts | 68° |
| 2026-05-07 20:15 | 51.90522 | 4.22408 | 9068 ft | 199 kts | 52° |
| 2026-05-07 20:15 | 51.91516 | 4.23967 | 9069 ft | 199 kts | 39° |
| 2026-05-07 20:16 | 51.92628 | 4.25298 | 9067 ft | 199 kts | 26° |
| 2026-05-07 20:16 | 51.93764 | 4.26528 | 9065 ft | 199 kts | 50° |
| 2026-05-07 20:16 | 51.94331 | 4.28544 | 9072 ft | 198 kts | 73° |
| 2026-05-07 20:16 | 51.94722 | 4.30680 | 9075 ft | 198 kts | 74° |
| 2026-05-07 20:17 | 51.95117 | 4.32818 | 9077 ft | 198 kts | 74° |
| 2026-05-07 20:17 | 51.95654 | 4.34863 | 9069 ft | 198 kts | 54° |
| 2026-05-07 20:17 | 51.96586 | 4.36504 | 9071 ft | 198 kts | 49° |
| 2026-05-07 20:17 | 51.97430 | 4.38262 | 9073 ft | 197 kts | 55° |
| 2026-05-07 20:18 | 51.98197 | 4.40092 | 9069 ft | 196 kts | 56° |
| 2026-05-07 20:18 | 51.98971 | 4.41930 | 9039 ft | 197 kts | 56° |
| 2026-05-07 20:18 | 51.99722 | 4.43702 | 9033 ft | 182 kts | 56° |
| 2026-05-07 20:18 | 52.00406 | 4.45306 | 9009 ft | 169 kts | 56° |
| 2026-05-07 20:19 | 52.01086 | 4.46901 | 8731 ft | 174 kts | 56° |
| 2026-05-07 20:19 | 52.01775 | 4.48522 | 8470 ft | 175 kts | 56° |
| 2026-05-07 20:19 | 52.02481 | 4.50180 | 8206 ft | 176 kts | 56° |
| 2026-05-07 20:19 | 52.03180 | 4.51822 | 7950 ft | 177 kts | 56° |
| 2026-05-07 20:20 | 52.03879 | 4.53468 | 7638 ft | 179 kts | 56° |
| 2026-05-07 20:20 | 52.04588 | 4.55141 | 7248 ft | 184 kts | 57° |
| 2026-05-07 20:20 | 52.05322 | 4.56872 | 6855 ft | 187 kts | 57° |
| 2026-05-07 20:20 | 52.06064 | 4.58620 | 6466 ft | 188 kts | 56° |
| 2026-05-07 20:21 | 52.06808 | 4.60377 | 6053 ft | 188 kts | 57° |
| 2026-05-07 20:21 | 52.07548 | 4.62124 | 5642 ft | 188 kts | 57° |
| 2026-05-07 20:21 | 52.08287 | 4.63870 | 5234 ft | 187 kts | 57° |
| 2026-05-07 20:21 | 52.09020 | 4.65603 | 4831 ft | 186 kts | 57° |
| 2026-05-07 20:22 | 52.09749 | 4.67330 | 4375 ft | 183 kts | 57° |
| 2026-05-07 20:22 | 52.10464 | 4.69026 | 3921 ft | 180 kts | 57° |
| 2026-05-07 20:22 | 52.11165 | 4.70685 | 3466 ft | 177 kts | 58° |
| 2026-05-07 20:22 | 52.11856 | 4.72323 | 3005 ft | 174 kts | 57° |
| 2026-05-07 20:23 | 52.12538 | 4.73942 | 2548 ft | 172 kts | 57° |
| 2026-05-07 20:23 | 52.13315 | 4.75406 | 2119 ft | 171 kts | 39° |
| 2026-05-07 20:23 | 52.14311 | 4.76223 | 2082 ft | 153 kts | 21° |
| 2026-05-07 20:23 | 52.15346 | 4.76454 | 1988 ft | 147 kts | 5° |
| 2026-05-07 20:24 | 52.16388 | 4.76541 | 1984 ft | 157 kts | 6° |
| 2026-05-07 20:24 | 52.17508 | 4.76654 | 1992 ft | 161 kts | 6° |
| 2026-05-07 20:24 | 52.18604 | 4.76757 | 1843 ft | 158 kts | 6° |
| 2026-05-07 20:24 | 52.19711 | 4.76838 | 1597 ft | 160 kts | 5° |
| 2026-05-07 20:25 | 52.20825 | 4.76933 | 1372 ft | 160 kts | 7° |
| 2026-05-07 20:25 | 52.21916 | 4.77034 | 1248 ft | 152 kts | 6° |
| 2026-05-07 20:25 | 52.22883 | 4.77146 | 1138 ft | 132 kts | 8° |
| 2026-05-07 20:25 | 52.23725 | 4.77227 | 1051 ft | 112 kts | 7° |
| 2026-05-07 20:26 | 52.24476 | 4.77290 | 862 ft | 104 kts | 5° |
| 2026-05-07 20:26 | 52.25193 | 4.77344 | 647 ft | 102 kts | 7° |
| 2026-05-07 20:26 | 52.25871 | 4.77408 | 530 ft | 94 kts | 8° |
| 2026-05-07 20:26 | 52.26531 | 4.77480 | 450 ft | 98 kts | 8° |
| 2026-05-07 20:27 | 52.27225 | 4.77548 | 384 ft | 104 kts | 5° |
| 2026-05-07 20:27 | 52.27943 | 4.77601 | 348 ft | 102 kts | 2° |
| 2026-05-07 20:27 | 52.28643 | 4.77565 | 318 ft | 97 kts | 359° |
| 2026-05-07 20:27 | 52.29296 | 4.77631 | 260 ft | 91 kts | 21° |
| 2026-05-07 20:28 | 52.29861 | 4.78111 | 113 ft | 93 kts | 37° |
| 2026-05-07 20:28 | 52.30343 | 4.78783 | -3 ft | 84 kts | 40° |
| 2026-05-07 20:28 | 52.30699 | 4.79315 | -9 ft | 54 kts | 30° |
| 2026-05-07 20:28 | 52.30896 | 4.79500 | -10 ft | 18 kts | 68° |
| 2026-05-07 20:29 | 52.30870 | 4.79678 | -14 ft | 15 kts | 151° |
| 2026-05-07 20:29 | 52.30827 | 4.79784 | -13 ft | 13 kts | 96° |
| 2026-05-07 20:29 | 52.30881 | 4.79903 | -12 ft | 14 kts | 40° |
| 2026-05-07 20:29 | 52.30958 | 4.80018 | -12 ft | 16 kts | 41° |
| 2026-05-07 20:30 | 52.31047 | 4.80140 | -11 ft | 11 kts | 46° |
| 2026-05-07 20:30 | 52.31045 | 4.80260 | -10 ft | 14 kts | 126° |
| 2026-05-07 20:30 | 52.30980 | 4.80384 | -9 ft | 9 kts | 132° |
| 2026-05-07 20:30 | 52.30984 | 4.80500 | -9 ft | 15 kts | 43° |
| 2026-05-07 20:31 | 52.31026 | 4.80563 | -9 ft | 4 kts | 38° |
| 2026-05-07 20:31 | 52.31050 | 4.80623 | -9 ft | 11 kts | 133° |
| 2026-05-07 20:31 | 52.30974 | 4.80648 | -10 ft | 3 kts | 206° |
| 2026-05-07 20:31 | 52.30956 | 4.80647 | -9 ft | 0 kts | 170° |
| 2026-05-07 20:32 | 52.30964 | 4.80653 | -9 ft | 0 kts | 244° |
| 2026-05-07 20:32 | 52.30962 | 4.80643 | -9 ft | 3 kts | 272° |
| 2026-05-07 20:32 | 52.30968 | 4.80646 | -9 ft | 8 kts | 192° |
| 2026-05-07 20:33 | 52.30976 | 4.80633 | -9 ft | 0 kts | 65° |